Abu Musa Airport

Airport
ICAO code: 
OIBA
IATA Code: 
AEU
Summary
ICAO Region: 
APAC
Territory: 
Location: 
Abu Musa Island, Hormozgan
Serving: 
Abu Musa
Elevation: 
23 ft
Coordinates: 
Aerial View: 
25° 52' 33.424" N, 55° 1' 57.835" E
Metar
Observation
OIBA 031500Z 30010KT 6000 FEW030CB BKN100 27/17 Q1015
Station
Abumusa Island / Abumusa
Date/Time
2021-12-03 15:00:00
Wind direction
300°
Wind speed
10 kts
Lowest cloud amount
few clouds
Temperature
27°C
Dew point
17°C
Humidity
54%
QNH
1015 hPa
Weather condition
n/a

Abu Musa Airport or Abumusa Airport is an airport serving Abu Musa Island, in the Hormozgan Province in Iran.

Climatology

Hot desert climate (Köppen climate classification BWh).

Runways

Designator Length Width Surface Rops
8/26 2986 45 ASP No/No
Airport map: 
Aerial View: 

SKYbrary Partners:

Safety knowledge contributed by: